sensor_id;sensor_type;location;lat;lon;timestamp;P1;durP1;ratioP1;P2;durP2;ratioP2
11066;SDS011;29763;50.904;5.530;2023-03-24T00:00:25;3.47;;;2.50;;
11066;SDS011;29763;50.904;5.530;2023-03-24T00:02:52;3.15;;;2.72;;
11066;SDS011;29763;50.904;5.530;2023-03-24T00:05:26;3.40;;;2.50;;
11066;SDS011;29763;50.904;5.530;2023-03-24T00:07:53;3.50;;;2.30;;
11066;SDS011;29763;50.904;5.530;2023-03-24T00:10:20;3.08;;;2.70;;
11066;SDS011;29763;50.904;5.530;2023-03-24T00:12:47;3.60;;;2.60;;
11066;SDS011;29763;50.904;5.530;2023-03-24T00:15:15;3.38;;;2.60;;
11066;SDS011;29763;50.904;5.530;2023-03-24T00:17:44;3.45;;;2.65;;
11066;SDS011;29763;50.904;5.530;2023-03-24T00:20:12;3.20;;;2.85;;
11066;SDS011;29763;50.904;5.530;2023-03-24T00:22:41;3.35;;;2.72;;
11066;SDS011;29763;50.904;5.530;2023-03-24T00:25:12;2.70;;;2.50;;
11066;SDS011;29763;50.904;5.530;2023-03-24T00:27:41;4.28;;;2.97;;
11066;SDS011;29763;50.904;5.530;2023-03-24T00:30:10;2.85;;;2.55;;
11066;SDS011;29763;50.904;5.530;2023-03-24T00:32:37;3.10;;;2.80;;
11066;SDS011;29763;50.904;5.530;2023-03-24T00:35:06;3.17;;;2.88;;
11066;SDS011;29763;50.904;5.530;2023-03-24T00:37:37;6.18;;;3.35;;
11066;SDS011;29763;50.904;5.530;2023-03-24T00:40:05;3.95;;;2.80;;
11066;SDS011;29763;50.904;5.530;2023-03-24T00:42:37;3.30;;;3.00;;
11066;SDS011;29763;50.904;5.530;2023-03-24T00:45:04;4.30;;;2.88;;
11066;SDS011;29763;50.904;5.530;2023-03-24T00:47:36;4.03;;;3.63;;
11066;SDS011;29763;50.904;5.530;2023-03-24T00:50:06;5.03;;;3.13;;
11066;SDS011;29763;50.904;5.530;2023-03-24T00:52:36;4.13;;;3.13;;
11066;SDS011;29763;50.904;5.530;2023-03-24T00:55:09;3.65;;;3.13;;
11066;SDS011;29763;50.904;5.530;2023-03-24T00:57:40;3.60;;;3.30;;
11066;SDS011;29763;50.904;5.530;2023-03-24T01:00:14;4.35;;;3.08;;
11066;SDS011;29763;50.904;5.530;2023-03-24T01:02:48;3.58;;;3.28;;
11066;SDS011;29763;50.904;5.530;2023-03-24T01:05:25;3.60;;;3.30;;
11066;SDS011;29763;50.904;5.530;2023-03-24T01:07:59;3.28;;;2.97;;
11066;SDS011;29763;50.904;5.530;2023-03-24T01:10:28;3.63;;;3.17;;
11066;SDS011;29763;50.904;5.530;2023-03-24T01:12:56;3.80;;;3.40;;
11066;SDS011;29763;50.904;5.530;2023-03-24T01:15:32;4.22;;;3.42;;
11066;SDS011;29763;50.904;5.530;2023-03-24T01:18:00;4.47;;;3.60;;
11066;SDS011;29763;50.904;5.530;2023-03-24T01:20:34;3.92;;;3.25;;
11066;SDS011;29763;50.904;5.530;2023-03-24T01:23:01;5.00;;;3.30;;
11066;SDS011;29763;50.904;5.530;2023-03-24T01:25:29;4.40;;;3.33;;
11066;SDS011;29763;50.904;5.530;2023-03-24T01:27:57;5.13;;;3.40;;
11066;SDS011;29763;50.904;5.530;2023-03-24T01:30:24;4.13;;;3.22;;
11066;SDS011;29763;50.904;5.530;2023-03-24T01:33:09;4.65;;;3.22;;
11066;SDS011;29763;50.904;5.530;2023-03-24T01:35:37;3.90;;;3.50;;
11066;SDS011;29763;50.904;5.530;2023-03-24T01:38:12;4.00;;;3.60;;
11066;SDS011;29763;50.904;5.530;2023-03-24T01:40:44;5.15;;;3.80;;
11066;SDS011;29763;50.904;5.530;2023-03-24T01:43:23;4.72;;;3.50;;
11066;SDS011;29763;50.904;5.530;2023-03-24T01:53:25;5.50;;;4.53;;
11066;SDS011;29763;50.904;5.530;2023-03-24T01:55:54;4.80;;;3.70;;
11066;SDS011;29763;50.904;5.530;2023-03-24T01:58:24;4.93;;;3.40;;
11066;SDS011;29763;50.904;5.530;2023-03-24T02:00:53;5.22;;;3.65;;
11066;SDS011;29763;50.904;5.530;2023-03-24T02:03:23;4.05;;;3.58;;
11066;SDS011;29763;50.904;5.530;2023-03-24T02:05:51;4.05;;;3.60;;
11066;SDS011;29763;50.904;5.530;2023-03-24T02:08:25;3.95;;;3.30;;
11066;SDS011;29763;50.904;5.530;2023-03-24T02:10:58;4.10;;;3.67;;
11066;SDS011;29763;50.904;5.530;2023-03-24T02:13:27;3.85;;;3.22;;
11066;SDS011;29763;50.904;5.530;2023-03-24T02:16:05;4.93;;;3.42;;
11066;SDS011;29763;50.904;5.530;2023-03-24T02:42:42;4.85;;;3.53;;
11066;SDS011;29763;50.904;5.530;2023-03-24T02:49:21;3.10;;;2.80;;
11066;SDS011;29763;50.904;5.530;2023-03-24T02:51:48;3.60;;;3.30;;
11066;SDS011;29763;50.904;5.530;2023-03-24T02:54:21;4.05;;;3.00;;
11066;SDS011;29763;50.904;5.530;2023-03-24T03:03:20;4.15;;;3.40;;
11066;SDS011;29763;50.904;5.530;2023-03-24T03:06:02;3.45;;;3.15;;
11066;SDS011;29763;50.904;5.530;2023-03-24T03:08:39;6.10;;;3.40;;
11066;SDS011;29763;50.904;5.530;2023-03-24T03:11:07;5.75;;;3.58;;
11066;SDS011;29763;50.904;5.530;2023-03-24T03:16:29;5.25;;;3.83;;
11066;SDS011;29763;50.904;5.530;2023-03-24T03:19:02;4.13;;;3.65;;
11066;SDS011;29763;50.904;5.530;2023-03-24T03:21:35;2.75;;;2.22;;
11066;SDS011;29763;50.904;5.530;2023-03-24T03:24:15;2.88;;;2.10;;
11066;SDS011;29763;50.904;5.530;2023-03-24T03:27:02;3.08;;;2.55;;
11066;SDS011;29763;50.904;5.530;2023-03-24T03:29:39;2.30;;;2.10;;
11066;SDS011;29763;50.904;5.530;2023-03-24T03:32:13;3.28;;;2.95;;
11066;SDS011;29763;50.904;5.530;2023-03-24T03:34:59;2.80;;;2.60;;
11066;SDS011;29763;50.904;5.530;2023-03-24T03:40:51;4.05;;;3.00;;
11066;SDS011;29763;50.904;5.530;2023-03-24T03:43:28;4.53;;;3.05;;
11066;SDS011;29763;50.904;5.530;2023-03-24T03:45:55;4.45;;;3.00;;
11066;SDS011;29763;50.904;5.530;2023-03-24T03:48:23;3.95;;;2.78;;
11066;SDS011;29763;50.904;5.530;2023-03-24T03:50:51;3.20;;;2.90;;
11066;SDS011;29763;50.904;5.530;2023-03-24T03:53:20;3.15;;;2.80;;
11066;SDS011;29763;50.904;5.530;2023-03-24T03:55:51;3.45;;;2.47;;
11066;SDS011;29763;50.904;5.530;2023-03-24T03:58:17;3.00;;;2.30;;
11066;SDS011;29763;50.904;5.530;2023-03-24T04:00:45;3.63;;;2.28;;
11066;SDS011;29763;50.904;5.530;2023-03-24T04:26:54;3.83;;;1.23;;
11066;SDS011;29763;50.904;5.530;2023-03-24T04:32:34;2.90;;;1.30;;
11066;SDS011;29763;50.904;5.530;2023-03-24T04:35:26;3.85;;;1.60;;
11066;SDS011;29763;50.904;5.530;2023-03-24T04:38:00;3.53;;;1.50;;
11066;SDS011;29763;50.904;5.530;2023-03-24T04:40:33;4.72;;;1.80;;
11066;SDS011;29763;50.904;5.530;2023-03-24T04:43:01;3.67;;;1.90;;
11066;SDS011;29763;50.904;5.530;2023-03-24T04:45:30;5.28;;;1.95;;
11066;SDS011;29763;50.904;5.530;2023-03-24T04:48:01;2.33;;;1.95;;
11066;SDS011;29763;50.904;5.530;2023-03-24T04:50:57;4.18;;;2.40;;
11066;SDS011;29763;50.904;5.530;2023-03-24T04:53:33;5.25;;;2.55;;
11066;SDS011;29763;50.904;5.530;2023-03-24T04:58:56;4.72;;;2.70;;
11066;SDS011;29763;50.904;5.530;2023-03-24T05:01:23;6.47;;;3.00;;
11066;SDS011;29763;50.904;5.530;2023-03-24T05:03:54;5.38;;;3.28;;
11066;SDS011;29763;50.904;5.530;2023-03-24T05:07:03;7.68;;;3.20;;
11066;SDS011;29763;50.904;5.530;2023-03-24T05:09:29;5.82;;;3.05;;
11066;SDS011;29763;50.904;5.530;2023-03-24T05:11:55;6.75;;;3.67;;
11066;SDS011;29763;50.904;5.530;2023-03-24T05:14:28;7.63;;;3.03;;
11066;SDS011;29763;50.904;5.530;2023-03-24T05:16:54;8.20;;;2.88;;
11066;SDS011;29763;50.904;5.530;2023-03-24T05:19:20;7.25;;;2.92;;
11066;SDS011;29763;50.904;5.530;2023-03-24T05:21:47;7.07;;;2.97;;
11066;SDS011;29763;50.904;5.530;2023-03-24T05:24:13;8.80;;;2.72;;
11066;SDS011;29763;50.904;5.530;2023-03-24T05:26:39;5.60;;;2.70;;
11066;SDS011;29763;50.904;5.530;2023-03-24T05:29:06;8.55;;;3.15;;
11066;SDS011;29763;50.904;5.530;2023-03-24T05:31:41;6.43;;;3.40;;
11066;SDS011;29763;50.904;5.530;2023-03-24T05:34:09;8.57;;;3.15;;
11066;SDS011;29763;50.904;5.530;2023-03-24T05:36:35;9.40;;;3.63;;
11066;SDS011;29763;50.904;5.530;2023-03-24T05:39:09;9.20;;;3.63;;
11066;SDS011;29763;50.904;5.530;2023-03-24T05:41:34;9.50;;;3.78;;
11066;SDS011;29763;50.904;5.530;2023-03-24T05:44:00;8.95;;;3.92;;
11066;SDS011;29763;50.904;5.530;2023-03-24T05:46:30;11.98;;;4.15;;
11066;SDS011;29763;50.904;5.530;2023-03-24T05:48:57;9.65;;;4.00;;
11066;SDS011;29763;50.904;5.530;2023-03-24T05:51:22;13.35;;;4.40;;
11066;SDS011;29763;50.904;5.530;2023-03-24T05:53:50;11.05;;;4.60;;
11066;SDS011;29763;50.904;5.530;2023-03-24T05:56:17;10.57;;;4.75;;
11066;SDS011;29763;50.904;5.530;2023-03-24T05:58:44;8.90;;;4.13;;
11066;SDS011;29763;50.904;5.530;2023-03-24T06:01:12;11.25;;;4.78;;
11066;SDS011;29763;50.904;5.530;2023-03-24T06:03:38;10.05;;;4.55;;
11066;SDS011;29763;50.904;5.530;2023-03-24T06:06:05;8.82;;;4.15;;
11066;SDS011;29763;50.904;5.530;2023-03-24T06:08:41;14.02;;;4.93;;
11066;SDS011;29763;50.904;5.530;2023-03-24T06:11:09;10.07;;;3.80;;
11066;SDS011;29763;50.904;5.530;2023-03-24T06:13:36;12.13;;;4.18;;
11066;SDS011;29763;50.904;5.530;2023-03-24T06:16:02;7.65;;;3.40;;
11066;SDS011;29763;50.904;5.530;2023-03-24T06:18:29;7.65;;;3.63;;
11066;SDS011;29763;50.904;5.530;2023-03-24T06:21:06;8.70;;;3.42;;
11066;SDS011;29763;50.904;5.530;2023-03-24T06:23:33;7.38;;;3.05;;
11066;SDS011;29763;50.904;5.530;2023-03-24T06:26:06;7.40;;;3.28;;
11066;SDS011;29763;50.904;5.530;2023-03-24T06:28:40;7.35;;;3.00;;
11066;SDS011;29763;50.904;5.530;2023-03-24T06:31:08;5.88;;;3.47;;
11066;SDS011;29763;50.904;5.530;2023-03-24T06:33:53;8.68;;;3.40;;
11066;SDS011;29763;50.904;5.530;2023-03-24T06:36:20;8.27;;;3.25;;
11066;SDS011;29763;50.904;5.530;2023-03-24T06:38:47;10.15;;;3.38;;
11066;SDS011;29763;50.904;5.530;2023-03-24T06:41:21;7.72;;;2.92;;
11066;SDS011;29763;50.904;5.530;2023-03-24T06:43:48;11.98;;;3.47;;
11066;SDS011;29763;50.904;5.530;2023-03-24T06:46:16;6.85;;;2.75;;
11066;SDS011;29763;50.904;5.530;2023-03-24T06:48:43;10.20;;;2.97;;
11066;SDS011;29763;50.904;5.530;2023-03-24T06:51:10;8.38;;;2.90;;
11066;SDS011;29763;50.904;5.530;2023-03-24T06:53:36;11.10;;;3.15;;
11066;SDS011;29763;50.904;5.530;2023-03-24T06:56:05;8.20;;;2.60;;
11066;SDS011;29763;50.904;5.530;2023-03-24T06:58:31;7.72;;;2.50;;
11066;SDS011;29763;50.904;5.530;2023-03-24T07:00:59;9.07;;;3.10;;
11066;SDS011;29763;50.904;5.530;2023-03-24T07:03:27;9.00;;;3.13;;
11066;SDS011;29763;50.904;5.530;2023-03-24T07:05:57;7.78;;;3.30;;
11066;SDS011;29763;50.904;5.530;2023-03-24T07:08:35;10.93;;;3.30;;
11066;SDS011;29763;50.904;5.530;2023-03-24T07:11:01;6.07;;;3.00;;
11066;SDS011;29763;50.904;5.530;2023-03-24T07:13:37;9.27;;;2.88;;
11066;SDS011;29763;50.904;5.530;2023-03-24T07:16:04;7.63;;;2.78;;
11066;SDS011;29763;50.904;5.530;2023-03-24T07:18:30;6.72;;;3.00;;
11066;SDS011;29763;50.904;5.530;2023-03-24T07:20:57;6.30;;;2.72;;
11066;SDS011;29763;50.904;5.530;2023-03-24T07:23:24;13.73;;;3.72;;
11066;SDS011;29763;50.904;5.530;2023-03-24T07:25:51;7.60;;;2.70;;
11066;SDS011;29763;50.904;5.530;2023-03-24T07:28:25;9.02;;;2.75;;
11066;SDS011;29763;50.904;5.530;2023-03-24T07:30:52;10.52;;;3.30;;
11066;SDS011;29763;50.904;5.530;2023-03-24T07:33:36;12.50;;;3.10;;
11066;SDS011;29763;50.904;5.530;2023-03-24T07:36:03;10.10;;;2.80;;
11066;SDS011;29763;50.904;5.530;2023-03-24T07:38:33;12.65;;;3.72;;
11066;SDS011;29763;50.904;5.530;2023-03-24T07:41:03;12.05;;;3.92;;
11066;SDS011;29763;50.904;5.530;2023-03-24T07:43:36;10.30;;;3.80;;
11066;SDS011;29763;50.904;5.530;2023-03-24T07:46:03;10.50;;;3.60;;
11066;SDS011;29763;50.904;5.530;2023-03-24T07:48:31;11.25;;;4.30;;
11066;SDS011;29763;50.904;5.530;2023-03-24T07:50:56;7.15;;;3.50;;
11066;SDS011;29763;50.904;5.530;2023-03-24T07:53:29;11.18;;;4.25;;
11066;SDS011;29763;50.904;5.530;2023-03-24T07:55:58;10.85;;;4.50;;
11066;SDS011;29763;50.904;5.530;2023-03-24T07:58:24;15.48;;;4.78;;
11066;SDS011;29763;50.904;5.530;2023-03-24T08:00:50;11.00;;;4.22;;
11066;SDS011;29763;50.904;5.530;2023-03-24T08:03:16;11.88;;;4.40;;
11066;SDS011;29763;50.904;5.530;2023-03-24T08:05:42;12.68;;;3.75;;
11066;SDS011;29763;50.904;5.530;2023-03-24T08:08:08;11.20;;;3.72;;
11066;SDS011;29763;50.904;5.530;2023-03-24T08:10:34;11.00;;;3.92;;
11066;SDS011;29763;50.904;5.530;2023-03-24T08:13:01;9.38;;;3.75;;
11066;SDS011;29763;50.904;5.530;2023-03-24T08:15:27;11.70;;;3.50;;
11066;SDS011;29763;50.904;5.530;2023-03-24T08:17:54;10.30;;;3.78;;
11066;SDS011;29763;50.904;5.530;2023-03-24T08:20:22;9.75;;;3.60;;
11066;SDS011;29763;50.904;5.530;2023-03-24T08:22:51;9.88;;;3.67;;
11066;SDS011;29763;50.904;5.530;2023-03-24T08:25:18;10.15;;;3.20;;
11066;SDS011;29763;50.904;5.530;2023-03-24T08:27:47;9.20;;;3.45;;
11066;SDS011;29763;50.904;5.530;2023-03-24T08:30:17;9.77;;;3.22;;
11066;SDS011;29763;50.904;5.530;2023-03-24T08:32:45;7.97;;;3.20;;
11066;SDS011;29763;50.904;5.530;2023-03-24T08:35:14;11.63;;;3.30;;
11066;SDS011;29763;50.904;5.530;2023-03-24T08:37:43;9.20;;;3.75;;
11066;SDS011;29763;50.904;5.530;2023-03-24T08:40:10;9.50;;;3.35;;
11066;SDS011;29763;50.904;5.530;2023-03-24T08:42:39;9.95;;;3.42;;
11066;SDS011;29763;50.904;5.530;2023-03-24T08:45:06;12.85;;;3.33;;
11066;SDS011;29763;50.904;5.530;2023-03-24T08:47:35;9.27;;;3.00;;
11066;SDS011;29763;50.904;5.530;2023-03-24T08:50:01;8.73;;;3.20;;
11066;SDS011;29763;50.904;5.530;2023-03-24T08:52:28;11.23;;;3.10;;
11066;SDS011;29763;50.904;5.530;2023-03-24T08:54:55;7.57;;;2.60;;
11066;SDS011;29763;50.904;5.530;2023-03-24T08:57:23;13.60;;;3.10;;
11066;SDS011;29763;50.904;5.530;2023-03-24T08:59:49;10.70;;;2.95;;
11066;SDS011;29763;50.904;5.530;2023-03-24T09:02:17;8.35;;;2.90;;
11066;SDS011;29763;50.904;5.530;2023-03-24T09:04:45;9.05;;;2.70;;
11066;SDS011;29763;50.904;5.530;2023-03-24T09:07:12;7.00;;;2.63;;
11066;SDS011;29763;50.904;5.530;2023-03-24T09:09:38;7.93;;;2.65;;
11066;SDS011;29763;50.904;5.530;2023-03-24T09:12:05;9.48;;;2.70;;
11066;SDS011;29763;50.904;5.530;2023-03-24T09:14:31;8.88;;;3.00;;
11066;SDS011;29763;50.904;5.530;2023-03-24T09:17:01;8.60;;;2.90;;
11066;SDS011;29763;50.904;5.530;2023-03-24T09:19:28;8.85;;;2.65;;
11066;SDS011;29763;50.904;5.530;2023-03-24T09:22:01;8.38;;;2.63;;
11066;SDS011;29763;50.904;5.530;2023-03-24T09:24:28;7.75;;;2.58;;
11066;SDS011;29763;50.904;5.530;2023-03-24T09:26:54;9.35;;;2.92;;
11066;SDS011;29763;50.904;5.530;2023-03-24T09:29:22;10.85;;;2.90;;
11066;SDS011;29763;50.904;5.530;2023-03-24T09:31:48;7.65;;;2.72;;
11066;SDS011;29763;50.904;5.530;2023-03-24T09:34:14;7.20;;;2.38;;
11066;SDS011;29763;50.904;5.530;2023-03-24T09:36:46;6.93;;;2.53;;
11066;SDS011;29763;50.904;5.530;2023-03-24T09:39:13;7.65;;;2.80;;
11066;SDS011;29763;50.904;5.530;2023-03-24T09:41:39;7.10;;;2.53;;
11066;SDS011;29763;50.904;5.530;2023-03-24T09:44:12;8.30;;;2.53;;
11066;SDS011;29763;50.904;5.530;2023-03-24T09:47:01;7.00;;;2.53;;
11066;SDS011;29763;50.904;5.530;2023-03-24T09:49:50;7.20;;;2.58;;
11066;SDS011;29763;50.904;5.530;2023-03-24T09:52:19;9.77;;;2.83;;
11066;SDS011;29763;50.904;5.530;2023-03-24T09:54:56;7.60;;;2.83;;
11066;SDS011;29763;50.904;5.530;2023-03-24T10:00:15;8.98;;;3.17;;
11066;SDS011;29763;50.904;5.530;2023-03-24T10:02:50;9.32;;;2.95;;
11066;SDS011;29763;50.904;5.530;2023-03-24T10:05:19;7.28;;;2.75;;
11066;SDS011;29763;50.904;5.530;2023-03-24T10:07:58;6.65;;;2.75;;
11066;SDS011;29763;50.904;5.530;2023-03-24T10:19:36;8.68;;;2.58;;
11066;SDS011;29763;50.904;5.530;2023-03-24T10:22:38;8.95;;;3.15;;
11066;SDS011;29763;50.904;5.530;2023-03-24T10:28:19;8.15;;;3.03;;
11066;SDS011;29763;50.904;5.530;2023-03-24T10:31:03;7.45;;;2.40;;
11066;SDS011;29763;50.904;5.530;2023-03-24T10:33:36;7.47;;;2.08;;
11066;SDS011;29763;50.904;5.530;2023-03-24T10:36:10;6.72;;;2.35;;
11066;SDS011;29763;50.904;5.530;2023-03-24T10:38:40;8.27;;;2.70;;
11066;SDS011;29763;50.904;5.530;2023-03-24T10:41:11;8.75;;;2.80;;
11066;SDS011;29763;50.904;5.530;2023-03-24T10:43:45;7.47;;;2.60;;
11066;SDS011;29763;50.904;5.530;2023-03-24T10:46:20;6.97;;;2.60;;
11066;SDS011;29763;50.904;5.530;2023-03-24T10:48:48;7.13;;;2.55;;
11066;SDS011;29763;50.904;5.530;2023-03-24T10:51:19;8.50;;;2.72;;
11066;SDS011;29763;50.904;5.530;2023-03-24T10:54:08;6.32;;;2.03;;
11066;SDS011;29763;50.904;5.530;2023-03-24T11:02:26;8.20;;;2.63;;
11066;SDS011;29763;50.904;5.530;2023-03-24T11:04:57;7.57;;;2.75;;
11066;SDS011;29763;50.904;5.530;2023-03-24T11:07:37;10.18;;;2.42;;
11066;SDS011;29763;50.904;5.530;2023-03-24T11:12:36;10.75;;;2.88;;
11066;SDS011;29763;50.904;5.530;2023-03-24T11:15:13;6.88;;;2.35;;
11066;SDS011;29763;50.904;5.530;2023-03-24T11:18:26;8.40;;;2.45;;
11066;SDS011;29763;50.904;5.530;2023-03-24T11:20:49;7.47;;;2.35;;
11066;SDS011;29763;50.904;5.530;2023-03-24T11:26:12;5.53;;;2.50;;
11066;SDS011;29763;50.904;5.530;2023-03-24T11:28:57;9.00;;;2.67;;
11066;SDS011;29763;50.904;5.530;2023-03-24T11:31:31;6.80;;;2.35;;
11066;SDS011;29763;50.904;5.530;2023-03-24T11:37:01;6.10;;;2.35;;
11066;SDS011;29763;50.904;5.530;2023-03-24T11:40:13;6.05;;;2.38;;
11066;SDS011;29763;50.904;5.530;2023-03-24T11:42:42;6.28;;;2.33;;
11066;SDS011;29763;50.904;5.530;2023-03-24T11:45:42;6.50;;;2.17;;
11066;SDS011;29763;50.904;5.530;2023-03-24T11:48:36;7.13;;;2.55;;
11066;SDS011;29763;50.904;5.530;2023-03-24T11:51:37;7.13;;;2.70;;
11066;SDS011;29763;50.904;5.530;2023-03-24T11:54:25;7.53;;;2.03;;
11066;SDS011;29763;50.904;5.530;2023-03-24T11:57:02;7.78;;;2.40;;
11066;SDS011;29763;50.904;5.530;2023-03-24T12:05:20;5.00;;;1.70;;
11066;SDS011;29763;50.904;5.530;2023-03-24T12:11:02;5.75;;;2.20;;
11066;SDS011;29763;50.904;5.530;2023-03-24T12:13:34;8.90;;;2.42;;
11066;SDS011;29763;50.904;5.530;2023-03-24T12:18:49;7.47;;;2.35;;
11066;SDS011;29763;50.904;5.530;2023-03-24T12:27:06;6.45;;;2.15;;
11066;SDS011;29763;50.904;5.530;2023-03-24T12:32:29;6.40;;;2.00;;
11066;SDS011;29763;50.904;5.530;2023-03-24T12:37:58;7.43;;;2.10;;
11066;SDS011;29763;50.904;5.530;2023-03-24T12:42:59;5.63;;;2.05;;
11066;SDS011;29763;50.904;5.530;2023-03-24T12:45:49;7.20;;;2.30;;
11066;SDS011;29763;50.904;5.530;2023-03-24T12:48:21;5.80;;;1.75;;
11066;SDS011;29763;50.904;5.530;2023-03-24T12:56:37;6.30;;;1.80;;
11066;SDS011;29763;50.904;5.530;2023-03-24T12:59:15;4.95;;;1.73;;
11066;SDS011;29763;50.904;5.530;2023-03-24T13:02:21;8.80;;;2.53;;
11066;SDS011;29763;50.904;5.530;2023-03-24T13:05:01;5.30;;;1.90;;
11066;SDS011;29763;50.904;5.530;2023-03-24T13:07:35;4.30;;;1.85;;
11066;SDS011;29763;50.904;5.530;2023-03-24T13:13:19;3.95;;;2.00;;
11066;SDS011;29763;50.904;5.530;2023-03-24T13:16:30;5.93;;;2.38;;
11066;SDS011;29763;50.904;5.530;2023-03-24T13:18:55;7.72;;;2.17;;
11066;SDS011;29763;50.904;5.530;2023-03-24T13:21:28;4.85;;;1.90;;
11066;SDS011;29763;50.904;5.530;2023-03-24T13:24:13;8.00;;;1.80;;
11066;SDS011;29763;50.904;5.530;2023-03-24T13:37:53;5.78;;;1.92;;
11066;SDS011;29763;50.904;5.530;2023-03-24T13:40:40;6.88;;;2.30;;
11066;SDS011;29763;50.904;5.530;2023-03-24T13:43:12;3.88;;;1.75;;
11066;SDS011;29763;50.904;5.530;2023-03-24T13:45:43;6.90;;;1.88;;
11066;SDS011;29763;50.904;5.530;2023-03-24T13:48:22;6.43;;;2.08;;
11066;SDS011;29763;50.904;5.530;2023-03-24T13:56:48;5.82;;;2.05;;
11066;SDS011;29763;50.904;5.530;2023-03-24T14:04:47;5.72;;;2.42;;
11066;SDS011;29763;50.904;5.530;2023-03-24T14:26:12;6.10;;;2.10;;
11066;SDS011;29763;50.904;5.530;2023-03-24T14:28:42;5.53;;;1.95;;
11066;SDS011;29763;50.904;5.530;2023-03-24T14:39:28;5.15;;;1.63;;
11066;SDS011;29763;50.904;5.530;2023-03-24T14:42:00;4.07;;;1.80;;
11066;SDS011;29763;50.904;5.530;2023-03-24T14:44:53;2.55;;;1.30;;
11066;SDS011;29763;50.904;5.530;2023-03-24T14:47:40;4.78;;;1.40;;
11066;SDS011;29763;50.904;5.530;2023-03-24T14:50:22;3.47;;;1.40;;
11066;SDS011;29763;50.904;5.530;2023-03-24T14:53:00;5.57;;;1.80;;
11066;SDS011;29763;50.904;5.530;2023-03-24T14:55:27;2.53;;;1.60;;
11066;SDS011;29763;50.904;5.530;2023-03-24T14:58:03;6.18;;;1.92;;
11066;SDS011;29763;50.904;5.530;2023-03-24T15:00:42;3.85;;;1.70;;
11066;SDS011;29763;50.904;5.530;2023-03-24T15:06:07;4.65;;;1.55;;
11066;SDS011;29763;50.904;5.530;2023-03-24T15:08:37;8.68;;;2.50;;
11066;SDS011;29763;50.904;5.530;2023-03-24T15:11:06;3.60;;;1.70;;
11066;SDS011;29763;50.904;5.530;2023-03-24T15:14:23;5.07;;;2.03;;
11066;SDS011;29763;50.904;5.530;2023-03-24T15:17:35;7.07;;;2.35;;
11066;SDS011;29763;50.904;5.530;2023-03-24T15:19:48;4.00;;;1.83;;
11066;SDS011;29763;50.904;5.530;2023-03-24T15:22:16;4.25;;;1.50;;
11066;SDS011;29763;50.904;5.530;2023-03-24T15:24:46;5.68;;;1.80;;
11066;SDS011;29763;50.904;5.530;2023-03-24T15:29:40;3.83;;;1.60;;
11066;SDS011;29763;50.904;5.530;2023-03-24T15:32:14;6.50;;;1.50;;
11066;SDS011;29763;50.904;5.530;2023-03-24T15:34:47;3.28;;;1.70;;
11066;SDS011;29763;50.904;5.530;2023-03-24T15:37:22;2.92;;;1.70;;
11066;SDS011;29763;50.904;5.530;2023-03-24T15:39:56;4.93;;;1.90;;
11066;SDS011;29763;50.904;5.530;2023-03-24T15:42:25;3.75;;;1.60;;
11066;SDS011;29763;50.904;5.530;2023-03-24T15:44:51;2.03;;;1.42;;
11066;SDS011;29763;50.904;5.530;2023-03-24T15:49:57;4.57;;;2.05;;
11066;SDS011;29763;50.904;5.530;2023-03-24T15:55:07;3.65;;;1.85;;
11066;SDS011;29763;50.904;5.530;2023-03-24T15:57:39;3.92;;;2.10;;
11066;SDS011;29763;50.904;5.530;2023-03-24T16:00:15;4.13;;;2.00;;
11066;SDS011;29763;50.904;5.530;2023-03-24T16:02:50;5.65;;;1.88;;
11066;SDS011;29763;50.904;5.530;2023-03-24T16:07:53;4.43;;;1.60;;
11066;SDS011;29763;50.904;5.530;2023-03-24T16:10:38;6.75;;;2.00;;
11066;SDS011;29763;50.904;5.530;2023-03-24T16:13:11;3.47;;;1.80;;
11066;SDS011;29763;50.904;5.530;2023-03-24T16:15:43;4.93;;;1.85;;
11066;SDS011;29763;50.904;5.530;2023-03-24T16:18:12;7.25;;;2.15;;
11066;SDS011;29763;50.904;5.530;2023-03-24T16:20:41;6.80;;;2.13;;
11066;SDS011;29763;50.904;5.530;2023-03-24T16:23:08;7.95;;;2.75;;
11066;SDS011;29763;50.904;5.530;2023-03-24T16:25:42;7.40;;;2.10;;
11066;SDS011;29763;50.904;5.530;2023-03-24T16:28:11;3.33;;;1.70;;
11066;SDS011;29763;50.904;5.530;2023-03-24T16:30:43;6.32;;;1.88;;
11066;SDS011;29763;50.904;5.530;2023-03-24T16:33:10;3.92;;;1.77;;
11066;SDS011;29763;50.904;5.530;2023-03-24T16:35:39;3.85;;;1.50;;
11066;SDS011;29763;50.904;5.530;2023-03-24T16:38:05;4.28;;;1.60;;
11066;SDS011;29763;50.904;5.530;2023-03-24T16:40:35;6.30;;;1.90;;
11066;SDS011;29763;50.904;5.530;2023-03-24T16:43:03;2.55;;;1.40;;
11066;SDS011;29763;50.904;5.530;2023-03-24T16:45:30;4.78;;;1.48;;
11066;SDS011;29763;50.904;5.530;2023-03-24T16:47:59;4.05;;;2.40;;
11066;SDS011;29763;50.904;5.530;2023-03-24T16:50:34;4.00;;;2.03;;
11066;SDS011;29763;50.904;5.530;2023-03-24T16:53:07;5.15;;;1.80;;
11066;SDS011;29763;50.904;5.530;2023-03-24T16:55:34;5.45;;;2.10;;
11066;SDS011;29763;50.904;5.530;2023-03-24T16:58:01;3.78;;;1.60;;
11066;SDS011;29763;50.904;5.530;2023-03-24T17:00:29;3.67;;;1.50;;
11066;SDS011;29763;50.904;5.530;2023-03-24T17:02:55;4.50;;;1.60;;
11066;SDS011;29763;50.904;5.530;2023-03-24T17:05:27;4.82;;;1.50;;
11066;SDS011;29763;50.904;5.530;2023-03-24T17:07:55;4.68;;;1.63;;
11066;SDS011;29763;50.904;5.530;2023-03-24T17:10:23;4.10;;;1.80;;
11066;SDS011;29763;50.904;5.530;2023-03-24T17:12:50;5.68;;;1.75;;
11066;SDS011;29763;50.904;5.530;2023-03-24T17:15:22;5.18;;;1.90;;
11066;SDS011;29763;50.904;5.530;2023-03-24T17:17:50;8.02;;;2.28;;
11066;SDS011;29763;50.904;5.530;2023-03-24T17:20:16;3.83;;;2.03;;
11066;SDS011;29763;50.904;5.530;2023-03-24T17:22:43;4.53;;;1.70;;
11066;SDS011;29763;50.904;5.530;2023-03-24T17:25:11;5.78;;;2.03;;
11066;SDS011;29763;50.904;5.530;2023-03-24T17:27:39;5.07;;;2.00;;
11066;SDS011;29763;50.904;5.530;2023-03-24T17:30:05;4.63;;;2.05;;
11066;SDS011;29763;50.904;5.530;2023-03-24T17:32:33;4.50;;;2.03;;
11066;SDS011;29763;50.904;5.530;2023-03-24T17:34:59;6.35;;;1.95;;
11066;SDS011;29763;50.904;5.530;2023-03-24T17:37:29;3.95;;;2.05;;
11066;SDS011;29763;50.904;5.530;2023-03-24T17:39:56;4.97;;;1.92;;
11066;SDS011;29763;50.904;5.530;2023-03-24T17:42:22;6.70;;;2.00;;
11066;SDS011;29763;50.904;5.530;2023-03-24T17:44:54;5.25;;;1.67;;
11066;SDS011;29763;50.904;5.530;2023-03-24T17:47:19;4.35;;;1.88;;
11066;SDS011;29763;50.904;5.530;2023-03-24T17:49:46;4.95;;;2.40;;
11066;SDS011;29763;50.904;5.530;2023-03-24T17:52:12;5.75;;;2.03;;
11066;SDS011;29763;50.904;5.530;2023-03-24T17:54:39;4.07;;;2.10;;
11066;SDS011;29763;50.904;5.530;2023-03-24T17:57:13;2.40;;;1.60;;
11066;SDS011;29763;50.904;5.530;2023-03-24T17:59:39;4.93;;;1.73;;
11066;SDS011;29763;50.904;5.530;2023-03-24T18:02:04;2.42;;;1.40;;
11066;SDS011;29763;50.904;5.530;2023-03-24T18:04:31;2.88;;;1.40;;
11066;SDS011;29763;50.904;5.530;2023-03-24T18:06:58;4.30;;;1.50;;
11066;SDS011;29763;50.904;5.530;2023-03-24T18:09:24;3.50;;;1.30;;
11066;SDS011;29763;50.904;5.530;2023-03-24T18:11:51;3.33;;;1.40;;
11066;SDS011;29763;50.904;5.530;2023-03-24T18:14:17;3.83;;;1.30;;
11066;SDS011;29763;50.904;5.530;2023-03-24T18:16:43;4.00;;;1.60;;
11066;SDS011;29763;50.904;5.530;2023-03-24T18:19:09;3.53;;;1.70;;
11066;SDS011;29763;50.904;5.530;2023-03-24T18:21:35;4.15;;;1.40;;
11066;SDS011;29763;50.904;5.530;2023-03-24T18:24:01;2.40;;;1.10;;
11066;SDS011;29763;50.904;5.530;2023-03-24T18:26:28;1.23;;;0.90;;
11066;SDS011;29763;50.904;5.530;2023-03-24T18:28:57;1.98;;;0.80;;
11066;SDS011;29763;50.904;5.530;2023-03-24T18:31:23;1.75;;;0.77;;
11066;SDS011;29763;50.904;5.530;2023-03-24T18:33:59;0.85;;;0.75;;
11066;SDS011;29763;50.904;5.530;2023-03-24T18:36:25;1.10;;;0.90;;